createdAt,value
2023-05-14T00:01:10.072Z,100968.51
2023-05-14T00:03:37.720Z,100970.25
2023-05-14T00:06:05.008Z,100974.35
2023-05-14T00:08:31.650Z,100974.33
2023-05-14T00:10:59.005Z,100972.60
2023-05-14T00:13:26.341Z,100972.89
2023-05-14T00:15:53.029Z,100975.86
2023-05-14T00:18:19.723Z,100976.55
2023-05-14T00:20:46.367Z,100974.97
2023-05-14T00:23:13.007Z,100977.58
2023-05-14T00:25:40.081Z,100979.73
2023-05-14T00:28:06.803Z,100976.38
2023-05-14T00:30:33.424Z,100978.42
2023-05-14T00:33:00.054Z,100983.75
2023-05-14T00:35:26.962Z,100981.11
2023-05-14T00:37:53.873Z,100985.31
2023-05-14T00:40:21.026Z,100981.69
2023-05-14T00:42:48.268Z,100979.10
2023-05-14T00:45:14.920Z,100977.74
2023-05-14T00:47:41.568Z,100982.36
2023-05-14T00:50:09.101Z,100977.08
2023-05-14T00:52:36.942Z,100977.45
2023-05-14T00:55:07.492Z,100975.15
2023-05-14T00:57:36.097Z,100976.16
2023-05-14T01:00:03.814Z,100973.66
2023-05-14T01:02:31.002Z,100976.29
2023-05-14T01:04:57.891Z,100977.06
2023-05-14T01:07:28.808Z,100973.65
2023-05-14T01:10:01.281Z,100970.67
2023-05-14T01:12:53.355Z,100973.80
2023-05-14T01:15:38.290Z,100979.52
2023-05-14T01:18:08.095Z,100985.34
2023-05-14T01:20:35.092Z,100986.05
2023-05-14T01:23:01.939Z,100988.86
2023-05-14T01:25:29.281Z,100986.48
2023-05-14T01:28:18.246Z,100983.77
2023-05-14T01:31:00.994Z,100984.41
2023-05-14T01:33:27.916Z,100980.11
2023-05-14T01:35:54.866Z,100980.90
2023-05-14T01:38:21.723Z,100975.05
2023-05-14T01:40:48.459Z,100976.79
2023-05-14T01:43:15.725Z,100982.17
2023-05-14T01:45:42.721Z,100975.61
2023-05-14T01:48:09.483Z,100974.35
2023-05-14T01:50:36.218Z,100969.61
2023-05-14T01:53:03.168Z,100971.52
2023-05-14T01:55:29.885Z,100968.36
2023-05-14T01:57:56.589Z,100967.23
2023-05-14T02:00:24.077Z,100969.20
2023-05-14T02:02:51.197Z,100971.30
2023-05-14T02:05:17.949Z,100969.86
2023-05-14T02:07:44.708Z,100970.20
2023-05-14T02:10:11.514Z,100970.46
2023-05-14T02:12:38.302Z,100967.52
2023-05-14T02:15:05.692Z,100967.45
2023-05-14T02:17:32.315Z,100965.88
2023-05-14T02:19:58.932Z,100963.85
2023-05-14T02:22:25.787Z,100968.76
2023-05-14T02:24:52.703Z,100966.27
2023-05-14T02:27:19.662Z,100961.67
2023-05-14T02:29:46.277Z,100961.23
2023-05-14T02:32:13.933Z,100961.59
2023-05-14T02:34:40.651Z,100957.49
2023-05-14T02:37:07.543Z,100958.69
2023-05-14T02:39:34.329Z,100958.41
2023-05-14T02:42:01.326Z,100960.04
2023-05-14T02:44:27.926Z,100958.72
2023-05-14T02:46:54.624Z,100957.91
2023-05-14T02:49:21.810Z,100955.13
2023-05-14T02:51:48.436Z,100954.41
2023-05-14T02:54:16.783Z,100956.48
2023-05-14T02:56:43.582Z,100960.49
2023-05-14T02:59:10.565Z,100956.53
2023-05-14T03:01:37.859Z,100956.23
2023-05-14T03:04:05.126Z,100955.73
2023-05-14T03:06:31.969Z,100960.53
2023-05-14T03:08:58.632Z,100956.95
2023-05-14T03:11:25.557Z,100955.69
2023-05-14T03:13:52.380Z,100958.27
2023-05-14T03:16:19.057Z,100957.92
2023-05-14T03:18:45.729Z,100961.25
2023-05-14T03:21:12.623Z,100965.34
2023-05-14T03:23:39.501Z,100965.61
2023-05-14T03:26:06.419Z,100963.10
2023-05-14T03:28:33.063Z,100963.54
2023-05-14T03:30:59.906Z,100966.67
2023-05-14T03:33:26.706Z,100962.25
2023-05-14T03:35:53.327Z,100960.70
2023-05-14T03:38:21.407Z,100959.38
2023-05-14T03:40:48.153Z,100961.61
2023-05-14T03:43:14.949Z,100958.07
2023-05-14T03:45:42.347Z,100960.33
2023-05-14T03:48:09.533Z,100959.21
2023-05-14T03:50:37.156Z,100965.83
2023-05-14T03:53:03.895Z,100965.66
2023-05-14T03:55:30.659Z,100966.94
2023-05-14T03:57:57.299Z,100968.23
2023-05-14T04:00:24.338Z,100967.40
2023-05-14T04:02:52.464Z,100965.08
2023-05-14T04:05:19.183Z,100969.58
2023-05-14T04:07:46.387Z,100970.80
2023-05-14T04:10:13.652Z,100971.12
2023-05-14T04:12:40.317Z,100973.64
2023-05-14T04:15:08.858Z,100970.42
2023-05-14T04:17:35.764Z,100971.06
2023-05-14T04:20:02.447Z,100967.61
2023-05-14T04:22:29.066Z,100970.72
2023-05-14T04:24:55.703Z,100970.19
2023-05-14T04:27:22.432Z,100969.98
2023-05-14T04:29:49.873Z,100969.20
2023-05-14T04:32:17.753Z,100966.11
2023-05-14T04:34:44.412Z,100962.00
2023-05-14T04:37:11.030Z,100960.48
2023-05-14T04:39:37.935Z,100960.61
2023-05-14T04:42:05.322Z,100961.52
2023-05-14T04:44:31.929Z,100961.88
2023-05-14T04:46:58.562Z,100965.36
2023-05-14T04:49:25.365Z,100966.25
2023-05-14T04:51:52.547Z,100965.44
2023-05-14T04:54:19.203Z,100970.21
2023-05-14T04:56:45.865Z,100968.39
2023-05-14T04:59:12.788Z,100963.98
2023-05-14T05:01:39.490Z,100963.59
2023-05-14T05:04:06.324Z,100963.61
2023-05-14T05:06:33.039Z,100965.52
2023-05-14T05:09:01.837Z,100960.48
2023-05-14T05:11:28.926Z,100965.55
2023-05-14T05:13:55.875Z,100970.39
2023-05-14T05:16:22.937Z,100966.86
2023-05-14T05:18:49.913Z,100964.58
2023-05-14T05:21:16.639Z,100965.07
2023-05-14T05:23:43.325Z,100964.20
2023-05-14T05:26:10.155Z,100963.07
2023-05-14T05:28:36.773Z,100963.70
2023-05-14T05:31:03.491Z,100966.66
2023-05-14T05:33:30.450Z,100968.39
2023-05-14T05:35:57.060Z,100962.94
2023-05-14T05:38:23.719Z,100956.01
2023-05-14T05:40:50.347Z,100956.46
2023-05-14T05:43:17.014Z,100954.50
2023-05-14T05:45:43.831Z,100953.61
2023-05-14T05:48:10.528Z,100954.67
2023-05-14T05:50:37.267Z,100954.22
2023-05-14T05:53:04.175Z,100955.20
2023-05-14T05:55:30.969Z,100951.61
2023-05-14T05:57:57.689Z,100951.09
2023-05-14T06:00:24.915Z,100950.24
2023-05-14T06:02:52.453Z,100955.63
2023-05-14T06:05:19.698Z,100951.26
2023-05-14T06:07:46.478Z,100953.94
2023-05-14T06:10:13.096Z,100954.74
2023-05-14T06:12:40.512Z,100954.14
2023-05-14T06:15:07.824Z,100953.70
2023-05-14T06:17:34.497Z,100958.17
2023-05-14T06:20:01.233Z,100960.13
2023-05-14T06:22:27.970Z,100958.30
2023-05-14T06:24:54.678Z,100954.70
2023-05-14T06:27:21.477Z,100954.73
2023-05-14T06:29:48.122Z,100954.91
2023-05-14T06:32:15.809Z,100955.27
2023-05-14T06:34:42.950Z,100953.56
2023-05-14T06:37:10.495Z,100945.95
2023-05-14T06:39:37.366Z,100945.98
2023-05-14T06:42:04.320Z,100943.84
2023-05-14T06:44:31.362Z,100947.02
2023-05-14T06:46:58.034Z,100948.44
2023-05-14T06:49:24.740Z,100944.37
2023-05-14T06:51:52.332Z,100948.52
2023-05-14T06:54:20.459Z,100948.15
2023-05-14T06:56:47.201Z,100951.92
2023-05-14T06:59:13.907Z,100950.97
2023-05-14T07:01:40.972Z,100943.02
2023-05-14T07:04:07.962Z,100944.54
2023-05-14T07:06:34.797Z,100940.79
2023-05-14T07:09:01.466Z,100943.33
2023-05-14T07:11:28.281Z,100939.38
2023-05-14T07:13:54.954Z,100940.15
2023-05-14T07:16:21.603Z,100938.00
2023-05-14T07:18:48.313Z,100936.29
2023-05-14T07:21:15.058Z,100932.19
2023-05-14T07:25:17.882Z,100933.14
2023-05-14T07:27:44.546Z,100934.86
2023-05-14T07:30:11.675Z,100935.23
2023-05-14T07:32:38.461Z,100924.00
2023-05-14T07:35:06.261Z,100925.63
2023-05-14T07:37:32.900Z,100926.69
2023-05-14T07:39:59.700Z,100923.38
2023-05-14T07:42:35.994Z,100918.83
2023-05-14T07:45:04.961Z,100921.64
2023-05-14T07:47:31.753Z,100917.23
2023-05-14T07:49:59.380Z,100918.40
2023-05-14T07:52:26.111Z,100920.38
2023-05-14T07:54:53.006Z,100917.63
2023-05-14T07:57:20.100Z,100919.73
2023-05-14T07:59:47.897Z,100919.52
2023-05-14T08:02:16.300Z,100916.88
2023-05-14T08:04:43.058Z,100912.98
2023-05-14T08:07:09.710Z,100914.31
2023-05-14T08:09:36.633Z,100908.86
2023-05-14T08:12:03.569Z,100909.98
2023-05-14T08:14:30.229Z,100911.92
2023-05-14T08:16:56.917Z,100905.91
2023-05-14T08:19:24.436Z,100907.79
2023-05-14T08:21:51.592Z,100907.35
2023-05-14T08:24:18.755Z,100901.27
2023-05-14T08:26:45.382Z,100897.88
2023-05-14T08:29:12.972Z,100894.52
2023-05-14T08:31:41.538Z,100891.07
2023-05-14T08:34:08.194Z,100883.00
2023-05-14T08:36:34.825Z,100884.46
2023-05-14T08:39:01.518Z,100882.98
2023-05-14T08:41:28.105Z,100880.96
2023-05-14T08:44:16.187Z,100877.79
2023-05-14T08:46:42.860Z,100874.27
2023-05-14T08:49:28.839Z,100869.66
2023-05-14T08:51:55.492Z,100875.34
2023-05-14T08:54:24.735Z,100874.77
2023-05-14T08:56:51.957Z,100872.49
2023-05-14T08:59:19.366Z,100871.94
2023-05-14T09:01:50.457Z,100869.40
2023-05-14T09:04:23.286Z,100864.73
2023-05-14T09:06:51.199Z,100861.33
2023-05-14T09:09:18.113Z,100859.59
2023-05-14T09:11:47.318Z,100855.70
2023-05-14T09:14:13.989Z,100848.73
2023-05-14T09:16:42.751Z,100849.48
2023-05-14T09:19:09.734Z,100841.16
2023-05-14T09:21:36.528Z,100838.27
2023-05-14T09:24:04.027Z,100834.63
2023-05-14T09:26:32.181Z,100831.23
2023-05-14T09:29:05.189Z,100831.02
2023-05-14T09:31:33.085Z,100829.08
2023-05-14T09:34:00.073Z,100825.63
2023-05-14T09:36:27.765Z,100821.42
2023-05-14T09:38:58.069Z,100825.23
2023-05-14T09:41:24.839Z,100828.23
2023-05-14T09:43:51.628Z,100820.52
2023-05-14T09:46:18.367Z,100820.20
2023-05-14T09:48:45.976Z,100823.52
2023-05-14T09:51:13.276Z,100823.35
2023-05-14T09:53:41.382Z,100824.99
2023-05-14T09:56:08.046Z,100822.36
2023-05-14T09:58:34.675Z,100819.35
2023-05-14T10:01:01.943Z,100817.30
2023-05-14T10:03:29.876Z,100815.64
2023-05-14T10:05:58.835Z,100809.90
2023-05-14T10:08:28.091Z,100809.90
2023-05-14T10:10:55.948Z,100807.06
2023-05-14T10:13:24.286Z,100802.35
2023-05-14T10:15:50.906Z,100805.69
2023-05-14T10:18:19.845Z,100804.83
2023-05-14T10:20:48.698Z,100796.38
2023-05-14T10:23:15.734Z,100794.91
2023-05-14T10:25:42.506Z,100797.73
2023-05-14T10:28:09.221Z,100796.02
2023-05-14T10:30:36.031Z,100797.91
2023-05-14T10:33:07.355Z,100797.90
2023-05-14T10:35:51.945Z,100798.20
2023-05-14T10:38:23.324Z,100798.88
2023-05-14T10:40:51.611Z,100797.14
2023-05-14T10:43:19.545Z,100795.25
2023-05-14T10:45:46.411Z,100796.82
2023-05-14T10:48:13.083Z,100797.92
2023-05-14T10:50:40.148Z,100801.63
2023-05-14T10:53:06.894Z,100799.02
2023-05-14T10:55:33.775Z,100799.20
2023-05-14T10:58:01.509Z,100795.98
2023-05-14T11:00:28.276Z,100795.36
2023-05-14T11:02:56.132Z,100790.72
2023-05-14T11:05:22.896Z,100789.25
2023-05-14T11:07:50.372Z,100785.33
2023-05-14T11:10:18.503Z,100784.90
2023-05-14T11:12:46.847Z,100785.05
2023-05-14T11:15:15.096Z,100785.89
2023-05-14T11:17:42.427Z,100784.11
2023-05-14T11:20:10.000Z,100780.13
2023-05-14T11:22:37.384Z,100780.86
2023-05-14T11:25:04.684Z,100782.31
2023-05-14T11:27:36.396Z,100780.70
2023-05-14T11:30:04.127Z,100780.98
2023-05-14T11:32:34.126Z,100776.94
2023-05-14T11:35:00.908Z,100772.52
2023-05-14T11:37:27.547Z,100771.45
2023-05-14T11:39:55.305Z,100765.44
2023-05-14T11:42:22.413Z,100765.19
2023-05-14T11:44:50.330Z,100759.30
2023-05-14T11:47:18.371Z,100758.73
2023-05-14T11:49:45.445Z,100761.45
2023-05-14T11:52:14.904Z,100761.55
2023-05-14T11:54:42.694Z,100762.23
2023-05-14T11:57:19.584Z,100761.46
2023-05-14T11:59:47.251Z,100759.27
2023-05-14T12:02:16.133Z,100755.46
2023-05-14T12:04:43.074Z,100755.38
2023-05-14T12:07:14.563Z,100751.89
2023-05-14T12:09:49.212Z,100753.05
2023-05-14T12:12:20.397Z,100745.45
2023-05-14T12:14:47.349Z,100745.22
2023-05-14T12:17:18.230Z,100745.82
2023-05-14T12:19:45.633Z,100742.95
2023-05-14T12:22:13.902Z,100743.02
2023-05-14T12:24:40.530Z,100741.21
2023-05-14T12:27:07.632Z,100741.13
2023-05-14T12:29:38.816Z,100740.20
2023-05-14T12:32:09.365Z,100739.95
2023-05-14T12:34:37.690Z,100734.23
2023-05-14T12:37:05.946Z,100731.86
2023-05-14T12:39:33.731Z,100730.45
2023-05-14T12:42:00.797Z,100729.90
2023-05-14T12:44:27.778Z,100731.73
2023-05-14T12:46:54.527Z,100732.04
2023-05-14T12:49:21.539Z,100727.43
2023-05-14T12:51:48.159Z,100732.23
2023-05-14T12:54:16.031Z,100723.81
2023-05-14T12:56:42.880Z,100722.33
2023-05-14T12:59:09.633Z,100722.63
2023-05-14T13:01:37.649Z,100722.56
2023-05-14T13:04:05.749Z,100722.80
2023-05-14T13:06:32.753Z,100718.27
2023-05-14T13:09:01.924Z,100716.94
2023-05-14T13:11:30.429Z,100717.19
2023-05-14T13:14:00.128Z,100722.20
2023-05-14T13:16:27.752Z,100721.80
2023-05-14T13:18:55.448Z,100720.73
2023-05-14T13:21:22.247Z,100720.59
2023-05-14T13:23:49.009Z,100722.78
2023-05-14T13:26:16.155Z,100727.47
2023-05-14T13:28:43.007Z,100731.14
2023-05-14T13:31:11.280Z,100732.69
2023-05-14T13:33:40.852Z,100733.59
2023-05-14T13:36:08.303Z,100734.48
2023-05-14T13:38:35.014Z,100735.63
2023-05-14T13:41:04.530Z,100735.48
2023-05-14T13:43:31.908Z,100739.53
2023-05-14T13:45:59.347Z,100742.00
2023-05-14T13:48:26.087Z,100743.38
2023-05-14T13:50:52.860Z,100740.34
2023-05-14T13:53:20.598Z,100742.84
2023-05-14T13:55:49.150Z,100739.34
2023-05-14T13:58:16.870Z,100742.88
2023-05-14T14:00:44.261Z,100741.52
2023-05-14T14:03:11.261Z,100740.85
2023-05-14T14:05:38.473Z,100750.22
2023-05-14T14:08:21.956Z,100747.83
2023-05-14T14:10:50.702Z,100746.10
2023-05-14T14:13:17.395Z,100744.38
2023-05-14T14:15:44.371Z,100743.02
2023-05-14T14:18:11.301Z,100738.02
2023-05-14T14:20:38.031Z,100737.95
2023-05-14T14:23:04.667Z,100741.69
2023-05-14T14:25:31.377Z,100740.91
2023-05-14T14:27:58.065Z,100742.70
2023-05-14T14:30:24.826Z,100742.70
2023-05-14T14:32:51.639Z,100739.21
2023-05-14T14:35:19.204Z,100736.05
2023-05-14T14:37:49.148Z,100736.70
2023-05-14T14:40:16.866Z,100737.53
2023-05-14T14:42:43.727Z,100735.27
2023-05-14T14:45:11.003Z,100731.66
2023-05-14T14:47:37.674Z,100731.38
2023-05-14T14:50:05.587Z,100727.06
2023-05-14T14:52:32.324Z,100726.61
2023-05-14T14:54:58.940Z,100726.52
2023-05-14T14:57:26.774Z,100726.27
2023-05-14T14:59:53.609Z,100725.39
2023-05-14T15:02:21.235Z,100721.67
2023-05-14T15:04:48.422Z,100718.48
2023-05-14T15:07:17.587Z,100719.10
2023-05-14T15:09:45.017Z,100715.83
2023-05-14T15:12:12.780Z,100714.48
2023-05-14T15:14:40.332Z,100713.96
2023-05-14T15:17:07.322Z,100708.89
2023-05-14T15:19:34.277Z,100707.35
2023-05-14T15:22:01.770Z,100706.06
2023-05-14T15:24:29.674Z,100701.92
2023-05-14T15:26:56.540Z,100697.73
2023-05-14T15:29:23.196Z,100694.84
2023-05-14T15:31:49.958Z,100692.42
2023-05-14T15:34:16.606Z,100689.37
2023-05-14T15:36:43.245Z,100687.29
2023-05-14T15:39:12.964Z,100682.70
2023-05-14T15:41:39.817Z,100683.22
2023-05-14T15:44:06.589Z,100677.40
2023-05-14T15:46:33.480Z,100679.84
2023-05-14T15:49:00.133Z,100678.03
2023-05-14T15:51:26.909Z,100672.12
2023-05-14T15:53:54.840Z,100671.51
2023-05-14T15:56:22.641Z,100669.32
2023-05-14T15:58:49.676Z,100673.11
2023-05-14T16:01:16.426Z,100677.40
2023-05-14T16:03:43.151Z,100676.13
2023-05-14T16:06:10.029Z,100674.22
2023-05-14T16:08:36.689Z,100676.14
2023-05-14T16:11:03.343Z,100677.19
2023-05-14T16:13:30.095Z,100676.93
2023-05-14T16:15:56.792Z,100674.91
2023-05-14T16:18:25.279Z,100675.25
2023-05-14T16:20:52.110Z,100674.21
2023-05-14T16:23:19.012Z,100673.80
2023-05-14T16:25:45.728Z,100672.99
2023-05-14T16:28:13.491Z,100670.42
2023-05-14T16:30:40.204Z,100668.55
2023-05-14T16:33:06.927Z,100676.27
2023-05-14T16:35:33.734Z,100673.66
2023-05-14T16:38:00.389Z,100674.90
2023-05-14T16:40:27.191Z,100673.92
2023-05-14T16:42:53.828Z,100674.56
2023-05-14T16:45:20.682Z,100677.57
2023-05-14T16:47:47.366Z,100675.45
2023-05-14T16:50:14.149Z,100673.71
2023-05-14T16:52:40.847Z,100681.16
2023-05-14T16:55:08.085Z,100681.70
2023-05-14T16:57:35.155Z,100680.83
2023-05-14T17:00:04.663Z,100677.38
2023-05-14T17:02:33.013Z,100679.90
2023-05-14T17:05:00.309Z,100679.02
2023-05-14T17:07:27.126Z,100680.29
2023-05-14T17:09:53.813Z,100681.52
2023-05-14T17:12:20.678Z,100678.36
2023-05-14T17:14:47.326Z,100680.23
2023-05-14T17:17:14.088Z,100680.09
2023-05-14T17:19:41.115Z,100677.93
2023-05-14T17:22:08.270Z,100680.24
2023-05-14T17:24:36.632Z,100679.27
2023-05-14T17:27:03.480Z,100676.39
2023-05-14T17:29:30.143Z,100677.34
2023-05-14T17:31:56.830Z,100678.45
2023-05-14T17:34:23.876Z,100683.36
2023-05-14T17:36:50.607Z,100685.95
2023-05-14T17:39:17.216Z,100689.05
2023-05-14T17:41:44.043Z,100691.75
2023-05-14T17:44:12.909Z,100690.30
2023-05-14T17:46:41.608Z,100691.62
2023-05-14T17:49:08.490Z,100690.47
2023-05-14T17:51:35.380Z,100691.77
2023-05-14T17:54:01.996Z,100697.20
2023-05-14T17:56:28.639Z,100698.34
2023-05-14T17:58:55.258Z,100697.08
2023-05-14T18:01:21.896Z,100699.25
2023-05-14T18:03:48.920Z,100697.60
2023-05-14T18:06:16.893Z,100704.63
2023-05-14T18:08:43.781Z,100703.73
2023-05-14T18:11:10.376Z,100706.18
2023-05-14T18:13:37.108Z,100708.11
2023-05-14T18:16:04.204Z,100707.48
2023-05-14T18:18:31.098Z,100710.88
2023-05-14T18:20:57.921Z,100707.15
2023-05-14T18:23:24.535Z,100706.56
2023-05-14T18:25:51.166Z,100707.14
2023-05-14T18:28:18.975Z,100705.23
2023-05-14T18:30:45.784Z,100702.89
2023-05-14T18:33:12.553Z,100702.20
2023-05-14T18:35:39.368Z,100701.66
2023-05-14T18:38:08.026Z,100703.06
2023-05-14T18:40:35.060Z,100701.61
2023-05-14T18:43:01.848Z,100699.76
2023-05-14T18:45:28.467Z,100699.95
2023-05-14T18:47:55.180Z,100695.95
2023-05-14T18:50:21.956Z,100694.52
2023-05-14T18:52:48.702Z,100692.48
2023-05-14T18:55:15.636Z,100695.09
2023-05-14T18:57:42.274Z,100696.52
2023-05-14T19:00:09.840Z,100698.14
2023-05-14T19:02:36.608Z,100697.45
2023-05-14T19:05:03.425Z,100701.59
2023-05-14T19:07:30.852Z,100699.42
2023-05-14T19:09:57.759Z,100701.92
2023-05-14T19:12:24.651Z,100702.29
2023-05-14T19:14:51.286Z,100697.80
2023-05-14T19:17:19.862Z,100701.94
2023-05-14T19:19:47.379Z,100702.88
2023-05-14T19:22:14.042Z,100698.33
2023-05-14T19:24:40.723Z,100701.54
2023-05-14T19:27:08.130Z,100706.38
2023-05-14T19:29:36.880Z,100705.45
2023-05-14T19:32:04.745Z,100706.76
2023-05-14T19:34:31.579Z,100705.83
2023-05-14T19:36:58.195Z,100705.66
2023-05-14T19:39:24.802Z,100702.11
2023-05-14T19:43:14.329Z,100701.71
2023-05-14T19:45:42.856Z,100703.83
2023-05-14T19:48:09.780Z,100700.89
2023-05-14T19:50:37.160Z,100698.90
2023-05-14T19:53:04.583Z,100696.20
2023-05-14T19:55:31.416Z,100695.61
2023-05-14T19:57:58.842Z,100690.58
2023-05-14T20:00:26.799Z,100689.86
2023-05-14T20:02:55.017Z,100690.70
2023-05-14T20:05:22.170Z,100687.86
2023-05-14T20:07:49.518Z,100685.44
2023-05-14T20:10:16.250Z,100686.06
2023-05-14T20:12:42.912Z,100683.77
2023-05-14T20:15:10.275Z,100685.66
2023-05-14T20:17:38.313Z,100688.35
2023-05-14T20:20:06.917Z,100691.89
2023-05-14T20:22:33.572Z,100691.89
2023-05-14T20:25:00.413Z,100687.35
2023-05-14T20:27:27.226Z,100689.07
2023-05-14T20:29:54.356Z,100684.66
2023-05-14T20:32:25.037Z,100678.73
2023-05-14T20:34:52.009Z,100679.58
2023-05-14T20:37:19.855Z,100678.23
2023-05-14T20:39:46.894Z,100680.39
2023-05-14T20:42:13.675Z,100676.23
2023-05-14T20:44:40.468Z,100675.86
2023-05-14T20:47:07.166Z,100672.59
2023-05-14T20:49:33.816Z,100672.48
2023-05-14T20:52:00.614Z,100671.77
2023-05-14T20:54:27.263Z,100675.29
2023-05-14T20:56:53.878Z,100673.96
2023-05-14T20:59:20.479Z,100670.80
2023-05-14T21:01:47.410Z,100673.77
2023-05-14T21:04:15.290Z,100675.10
2023-05-14T21:06:42.276Z,100671.42
2023-05-14T21:09:08.921Z,100671.05
2023-05-14T21:11:35.753Z,100667.64
2023-05-14T21:14:02.429Z,100674.04
2023-05-14T21:16:30.314Z,100667.98
2023-05-14T21:18:57.484Z,100665.42
2023-05-14T21:21:24.193Z,100668.23
2023-05-14T21:23:51.103Z,100667.80
2023-05-14T21:26:17.717Z,100667.00
2023-05-14T21:28:44.283Z,100669.77
2023-05-14T21:31:10.899Z,100664.21
2023-05-14T21:33:37.577Z,100661.20
2023-05-14T21:36:04.664Z,100662.71
2023-05-14T21:38:32.496Z,100660.80
2023-05-14T21:40:59.690Z,100663.84
2023-05-14T21:43:26.771Z,100664.79
2023-05-14T21:45:53.375Z,100665.02
2023-05-14T21:48:20.306Z,100663.80
2023-05-14T21:50:47.136Z,100663.10
2023-05-14T21:53:13.852Z,100662.07
2023-05-14T21:55:40.674Z,100667.04
2023-05-14T21:58:07.599Z,100664.35
2023-05-14T22:00:34.309Z,100664.36
2023-05-14T22:03:00.910Z,100665.55
2023-05-14T22:05:27.768Z,100664.63
2023-05-14T22:07:54.651Z,100661.83
2023-05-14T22:10:21.446Z,100657.60
2023-05-14T22:12:48.187Z,100654.54
2023-05-14T22:15:14.821Z,100652.54
2023-05-14T22:17:42.036Z,100650.04
2023-05-14T22:20:11.659Z,100647.19
2023-05-14T22:22:38.550Z,100645.39
2023-05-14T22:25:05.704Z,100646.35
2023-05-14T22:27:32.410Z,100643.92
2023-05-14T22:29:59.251Z,100644.75
2023-05-14T22:32:26.031Z,100644.92
2023-05-14T22:34:52.766Z,100644.86
2023-05-14T22:37:19.452Z,100643.14
2023-05-14T22:39:46.073Z,100641.90
2023-05-14T22:42:13.278Z,100638.23
2023-05-14T22:44:40.090Z,100637.41
2023-05-14T22:47:06.811Z,100640.80
2023-05-14T22:49:33.391Z,100640.02
2023-05-14T22:52:00.060Z,100639.68
2023-05-14T22:54:26.654Z,100640.70
2023-05-14T22:56:53.390Z,100639.69
2023-05-14T22:59:21.013Z,100638.61
2023-05-14T23:01:49.541Z,100635.80
2023-05-14T23:04:16.262Z,100639.20
2023-05-14T23:06:42.970Z,100636.11
2023-05-14T23:09:09.565Z,100632.48
2023-05-14T23:11:36.180Z,100633.29
2023-05-14T23:14:03.070Z,100632.50
2023-05-14T23:16:29.670Z,100628.76
2023-05-14T23:18:56.419Z,100624.23
2023-05-14T23:21:23.807Z,100624.85
2023-05-14T23:23:50.489Z,100629.13
2023-05-14T23:26:17.112Z,100627.80
2023-05-14T23:28:44.103Z,100630.48
2023-05-14T23:31:10.872Z,100629.66
2023-05-14T23:33:39.895Z,100629.29
2023-05-14T23:36:07.288Z,100632.25
2023-05-14T23:38:33.961Z,100630.39
2023-05-14T23:41:00.606Z,100629.47
2023-05-14T23:43:27.276Z,100630.45
2023-05-14T23:45:53.899Z,100629.44
2023-05-14T23:48:20.683Z,100627.76
2023-05-14T23:50:47.786Z,100630.64
2023-05-14T23:53:14.348Z,100631.38
2023-05-14T23:55:41.117Z,100627.98
2023-05-14T23:58:07.847Z,100628.77
